createdAt,value
2018-12-27T00:00:19.789Z,55.98
2018-12-27T00:00:45.389Z,55.98
2018-12-27T00:01:10.966Z,55.9
2018-12-27T00:01:36.551Z,55.98
2018-12-27T00:02:02.157Z,55.78
2018-12-27T00:02:27.750Z,55.98
2018-12-27T00:02:54.922Z,55.98
2018-12-27T00:03:18.891Z,55.88
2018-12-27T00:03:44.457Z,55.88
2018-12-27T00:04:10.037Z,55.78
2018-12-27T00:04:35.611Z,55.78
2018-12-27T00:05:01.186Z,55.98
2018-12-27T00:05:26.756Z,55.78
2018-12-27T00:05:52.326Z,55.68
2018-12-27T00:06:17.897Z,55.98
2018-12-27T00:06:43.495Z,55.68
2018-12-27T00:07:09.073Z,55.68
2018-12-27T00:07:34.656Z,55.88
2018-12-27T00:08:00.233Z,55.98
2018-12-27T00:08:25.815Z,55.98
2018-12-27T00:08:51.413Z,55.88
2018-12-27T00:09:17.030Z,55.88
2018-12-27T00:09:42.619Z,56.07
2018-12-27T00:10:08.213Z,55.59
2018-12-27T00:10:33.769Z,55.68
2018-12-27T00:10:59.373Z,55.9
2018-12-27T00:11:24.937Z,55.68
2018-12-27T00:11:50.513Z,55.71
2018-12-27T00:12:16.081Z,55.78
2018-12-27T00:12:41.721Z,55.78
2018-12-27T00:13:07.290Z,55.68
2018-12-27T00:13:32.853Z,55.98
2018-12-27T00:13:58.398Z,55.98
2018-12-27T00:14:24.003Z,56
2018-12-27T00:14:49.573Z,55.98
2018-12-27T00:15:15.131Z,56
2018-12-27T00:15:40.700Z,55.78
2018-12-27T00:16:06.274Z,55.68
2018-12-27T00:16:32.304Z,55.78
2018-12-27T00:16:57.423Z,55.98
2018-12-27T00:17:23.024Z,55.88
2018-12-27T00:17:48.607Z,55.88
2018-12-27T00:18:14.183Z,55.68
2018-12-27T00:18:39.771Z,55.78
2018-12-27T00:19:05.344Z,55.88
2018-12-27T00:19:30.929Z,55.88
2018-12-27T00:19:56.475Z,55.88
2018-12-27T00:20:22.059Z,55.98
2018-12-27T00:20:47.649Z,55.98
2018-12-27T00:21:13.237Z,55.88
2018-12-27T00:21:38.805Z,55.98
2018-12-27T00:22:04.390Z,55.88
2018-12-27T00:22:29.971Z,55.98
2018-12-27T00:22:55.531Z,55.88
2018-12-27T00:23:21.099Z,55.78
2018-12-27T00:23:46.690Z,55.59
2018-12-27T00:24:12.263Z,55.59
2018-12-27T00:24:37.847Z,55.88
2018-12-27T00:25:03.399Z,55.98
2018-12-27T00:25:28.989Z,56.07
2018-12-27T00:25:54.562Z,55.88
2018-12-27T00:26:20.139Z,56.07
2018-12-27T00:26:45.697Z,55.88
2018-12-27T00:27:11.283Z,55.88
2018-12-27T00:27:36.869Z,55.98
2018-12-27T00:28:02.445Z,55.68
2018-12-27T00:28:28.019Z,55.88
2018-12-27T00:28:53.606Z,55.88
2018-12-27T00:29:19.161Z,55.98
2018-12-27T00:29:44.748Z,55.88
2018-12-27T00:30:10.303Z,55.88
2018-12-27T00:30:35.888Z,55.88
2018-12-27T00:31:01.477Z,55.88
2018-12-27T00:31:27.025Z,55.88
2018-12-27T00:31:52.613Z,55.78
2018-12-27T00:32:18.211Z,55.88
2018-12-27T00:32:43.799Z,55.88
2018-12-27T00:33:09.395Z,55.88
2018-12-27T00:33:34.988Z,55.88
2018-12-27T00:34:00.569Z,55.68
2018-12-27T00:34:26.151Z,55.88
2018-12-27T00:34:51.722Z,55.78
2018-12-27T00:35:17.281Z,55.88
2018-12-27T00:35:42.839Z,55.88
2018-12-27T00:36:08.421Z,55.78
2018-12-27T00:36:33.995Z,55.88
2018-12-27T00:36:59.585Z,55.88
2018-12-27T00:37:25.252Z,55.88
2018-12-27T00:37:50.745Z,55.98
2018-12-27T00:38:16.306Z,55.88
2018-12-27T00:38:41.915Z,55.88
2018-12-27T00:39:07.512Z,55.78
2018-12-27T00:39:33.099Z,55.88
2018-12-27T00:39:58.665Z,55.88
2018-12-27T00:40:24.257Z,55.88
2018-12-27T00:40:49.823Z,55.88
2018-12-27T00:41:15.397Z,55.88
2018-12-27T00:41:40.971Z,55.78
2018-12-27T00:42:06.527Z,55.78
2018-12-27T00:42:32.091Z,55.78
2018-12-27T00:42:57.669Z,55.68
2018-12-27T00:43:23.260Z,55.68
2018-12-27T00:43:48.829Z,55.78
2018-12-27T00:44:14.411Z,55.68
2018-12-27T00:44:39.981Z,55.88
2018-12-27T00:45:05.550Z,55.98
2018-12-27T00:45:31.140Z,55.88
2018-12-27T00:45:56.714Z,55.68
2018-12-27T00:46:22.301Z,55.78
2018-12-27T00:46:47.871Z,55.88
2018-12-27T00:47:13.431Z,55.88
2018-12-27T00:47:38.993Z,55.98
2018-12-27T00:48:04.576Z,56.07
2018-12-27T00:48:30.157Z,55.88
2018-12-27T00:48:55.721Z,55.98
2018-12-27T00:49:21.293Z,55.98
2018-12-27T00:49:46.859Z,55.98
2018-12-27T00:50:12.419Z,55.78
2018-12-27T00:50:37.987Z,55.78
2018-12-27T00:51:03.571Z,55.98
2018-12-27T00:51:29.145Z,55.98
2018-12-27T00:51:54.726Z,55.88
2018-12-27T00:52:20.287Z,55.68
2018-12-27T00:52:45.855Z,55.68
2018-12-27T00:53:11.420Z,55.68
2018-12-27T00:53:36.995Z,55.78
2018-12-27T00:54:02.566Z,55.78
2018-12-27T00:54:28.167Z,55.78
2018-12-27T00:54:53.745Z,55.78
2018-12-27T00:55:19.338Z,55.68
2018-12-27T00:55:44.912Z,55.78
2018-12-27T00:56:10.496Z,55.78
2018-12-27T00:56:36.065Z,55.78
2018-12-27T00:57:01.635Z,55.78
2018-12-27T00:57:27.210Z,55.68
2018-12-27T00:57:52.783Z,55.68
2018-12-27T00:58:18.377Z,55.68
2018-12-27T00:58:43.955Z,55.68
2018-12-27T00:59:09.525Z,55.78
2018-12-27T00:59:35.093Z,55.59
2018-12-27T01:00:00.746Z,56.07
2018-12-27T01:00:26.253Z,55.68
2018-12-27T01:00:51.851Z,55.68
2018-12-27T01:01:17.440Z,55.78
2018-12-27T01:01:43.007Z,55.98
2018-12-27T01:02:08.573Z,55.98
2018-12-27T01:02:34.185Z,55.68
2018-12-27T01:02:59.761Z,55.98
2018-12-27T01:03:25.328Z,55.98
2018-12-27T01:03:50.915Z,55.98
2018-12-27T01:04:16.474Z,55.98
2018-12-27T01:04:42.065Z,55.88
2018-12-27T01:05:07.635Z,55.88
2018-12-27T01:05:33.205Z,55.98
2018-12-27T01:05:58.763Z,55.98
2018-12-27T01:06:24.329Z,55.88
2018-12-27T01:06:49.915Z,55.88
2018-12-27T01:07:15.466Z,55.68
2018-12-27T01:07:41.032Z,55.68
2018-12-27T01:08:06.623Z,55.88
2018-12-27T01:08:32.183Z,55.88
2018-12-27T01:08:57.749Z,55.98
2018-12-27T01:09:23.314Z,55.88
2018-12-27T01:09:48.936Z,55.88
2018-12-27T01:10:14.486Z,55.88
2018-12-27T01:10:40.055Z,55.88
2018-12-27T01:11:05.613Z,55.88
2018-12-27T01:11:31.197Z,55.78
2018-12-27T01:11:56.779Z,55.78
2018-12-27T01:12:22.339Z,55.78
2018-12-27T01:12:47.908Z,55.88
2018-12-27T01:13:13.479Z,55.88
2018-12-27T01:13:39.051Z,55.98
2018-12-27T01:14:04.617Z,55.88
2018-12-27T01:14:30.200Z,55.88
2018-12-27T01:14:55.795Z,55.88
2018-12-27T01:15:21.363Z,55.88
2018-12-27T01:15:46.929Z,55.88
2018-12-27T01:16:12.497Z,55.68
2018-12-27T01:16:38.109Z,55.88
2018-12-27T01:17:03.683Z,55.88
2018-12-27T01:17:29.259Z,55.88
2018-12-27T01:17:54.837Z,55.68
2018-12-27T01:18:20.402Z,55.88
2018-12-27T01:18:45.990Z,55.88
2018-12-27T01:19:11.566Z,55.98
2018-12-27T01:19:37.156Z,55.88
2018-12-27T01:20:02.731Z,55.88
2018-12-27T01:20:28.291Z,55.88
2018-12-27T01:20:53.880Z,55.68
2018-12-27T01:21:19.458Z,55.78
2018-12-27T01:21:45.039Z,55.68
2018-12-27T01:22:10.598Z,55.68
2018-12-27T01:22:36.165Z,55.78
2018-12-27T01:23:01.736Z,55.88
2018-12-27T01:23:27.311Z,55.88
2018-12-27T01:23:52.872Z,55.88
2018-12-27T01:24:18.448Z,55.88
2018-12-27T01:24:44.009Z,55.98
2018-12-27T01:25:09.586Z,55.88
2018-12-27T01:25:35.145Z,55.88
2018-12-27T01:26:00.710Z,55.98
2018-12-27T01:26:26.289Z,55.88
2018-12-27T01:26:51.855Z,55.98
2018-12-27T01:27:17.426Z,55.98
2018-12-27T01:27:42.984Z,55.68
2018-12-27T01:28:08.559Z,55.98
2018-12-27T01:28:34.135Z,55.98
2018-12-27T01:28:59.714Z,55.88
2018-12-27T01:29:25.304Z,55.88
2018-12-27T01:29:50.866Z,55.88
2018-12-27T01:30:16.434Z,56.07
2018-12-27T01:30:42.020Z,55.98
2018-12-27T01:31:07.588Z,55.98
2018-12-27T01:31:33.174Z,55.88
2018-12-27T01:31:58.738Z,55.98
2018-12-27T01:32:24.321Z,55.68
2018-12-27T01:32:49.906Z,55.88
2018-12-27T01:33:18.774Z,55.88
2018-12-27T01:33:41.030Z,55.68
2018-12-27T01:34:06.576Z,55.88
2018-12-27T01:34:32.201Z,55.68
2018-12-27T01:34:57.766Z,55.68
2018-12-27T01:35:23.363Z,55.78
2018-12-27T01:35:48.970Z,55.88
2018-12-27T01:36:14.556Z,55.88
2018-12-27T01:36:40.126Z,55.88
2018-12-27T01:37:05.712Z,55.68
2018-12-27T01:37:31.288Z,55.98
2018-12-27T01:37:56.852Z,55.98
2018-12-27T01:38:22.423Z,55.88
2018-12-27T01:38:47.994Z,55.78
2018-12-27T01:39:13.559Z,55.78
2018-12-27T01:39:39.134Z,55.78
2018-12-27T01:40:04.700Z,55.88
2018-12-27T01:40:30.256Z,55.68
2018-12-27T01:40:55.829Z,55.68
2018-12-27T01:41:21.394Z,55.68
2018-12-27T01:41:46.960Z,55.78
2018-12-27T01:42:12.528Z,55.78
2018-12-27T01:42:38.122Z,55.68
2018-12-27T01:43:03.670Z,55.68
2018-12-27T01:43:29.246Z,55.78
2018-12-27T01:43:54.804Z,55.68
2018-12-27T01:44:20.381Z,55.88
2018-12-27T01:44:45.940Z,55.68
2018-12-27T01:45:11.492Z,55.88
2018-12-27T01:45:37.060Z,55.88
2018-12-27T01:46:02.633Z,56.07
2018-12-27T01:46:28.192Z,55.98
2018-12-27T01:46:53.773Z,55.88
2018-12-27T01:47:19.348Z,55.78
2018-12-27T01:47:44.912Z,55.68
2018-12-27T01:48:10.512Z,55.68
2018-12-27T01:48:36.115Z,55.68
2018-12-27T01:49:01.704Z,55.88
2018-12-27T01:49:27.283Z,55.88
2018-12-27T01:49:52.843Z,55.78
2018-12-27T01:50:18.416Z,55.98
2018-12-27T01:50:43.994Z,55.88
2018-12-27T01:51:09.564Z,55.88
2018-12-27T01:51:35.108Z,55.78
2018-12-27T01:52:00.710Z,55.88
2018-12-27T01:52:26.278Z,55.88
2018-12-27T01:52:51.870Z,55.88
2018-12-27T01:53:17.448Z,55.78
2018-12-27T01:53:43.024Z,55.78
2018-12-27T01:54:08.578Z,55.68
2018-12-27T01:54:34.129Z,55.68
2018-12-27T01:54:59.705Z,55.68
2018-12-27T01:55:25.277Z,55.88
2018-12-27T01:55:50.847Z,55.68
2018-12-27T01:56:16.420Z,55.88
2018-12-27T01:56:41.997Z,55.88
2018-12-27T01:57:07.570Z,55.68
2018-12-27T01:57:33.159Z,55.88
2018-12-27T01:57:58.726Z,55.78
2018-12-27T01:58:24.288Z,55.88
2018-12-27T01:58:49.868Z,55.88
2018-12-27T01:59:15.430Z,55.88
2018-12-27T01:59:41.106Z,55.68
2018-12-27T02:00:06.656Z,55.68
2018-12-27T02:00:32.254Z,55.88
2018-12-27T02:00:57.823Z,55.88
2018-12-27T02:01:23.416Z,55.78
2018-12-27T02:01:48.994Z,55.78
2018-12-27T02:02:14.566Z,55.68
2018-12-27T02:02:40.141Z,55.78
2018-12-27T02:03:05.726Z,55.88
2018-12-27T02:03:31.296Z,55.68
2018-12-27T02:03:56.873Z,55.68
2018-12-27T02:04:22.418Z,55.88
2018-12-27T02:04:47.993Z,55.68
2018-12-27T02:05:13.610Z,55.98
2018-12-27T02:05:39.122Z,55.88
2018-12-27T02:06:04.707Z,55.88
2018-12-27T02:06:30.285Z,55.88
2018-12-27T02:06:55.866Z,55.88
2018-12-27T02:07:21.422Z,55.78
2018-12-27T02:07:47.012Z,55.88
2018-12-27T02:08:12.602Z,55.78
2018-12-27T02:08:38.186Z,55.88
2018-12-27T02:09:03.770Z,55.88
2018-12-27T02:09:29.338Z,55.78
2018-12-27T02:09:54.904Z,55.88
2018-12-27T02:10:20.480Z,55.68
2018-12-27T02:10:46.064Z,55.78
2018-12-27T02:11:11.650Z,55.88
2018-12-27T02:11:37.212Z,55.88
2018-12-27T02:12:02.778Z,55.68
2018-12-27T02:12:28.352Z,55.78
2018-12-27T02:12:54.020Z,55.78
2018-12-27T02:13:19.588Z,55.68
2018-12-27T02:13:45.171Z,55.78
2018-12-27T02:14:10.744Z,55.88
2018-12-27T02:14:36.313Z,55.68
2018-12-27T02:15:01.898Z,55.88
2018-12-27T02:15:27.448Z,55.68
2018-12-27T02:15:53.019Z,55.68
2018-12-27T02:16:18.584Z,55.68
2018-12-27T02:16:44.150Z,55.68
2018-12-27T02:17:09.730Z,55.88
2018-12-27T02:17:35.297Z,55.88
2018-12-27T02:18:00.868Z,55.88
2018-12-27T02:18:26.456Z,55.88
2018-12-27T02:18:52.038Z,55.98
2018-12-27T02:19:17.610Z,55.88
2018-12-27T02:19:43.166Z,55.88
2018-12-27T02:20:08.733Z,55.88
2018-12-27T02:20:34.290Z,55.68
2018-12-27T02:20:59.857Z,55.78
2018-12-27T02:21:25.439Z,55.68
2018-12-27T02:21:51.005Z,55.68
2018-12-27T02:22:16.577Z,55.78
2018-12-27T02:22:42.142Z,55.78
2018-12-27T02:23:07.704Z,55.68
2018-12-27T02:23:33.268Z,55.68
2018-12-27T02:23:58.829Z,55.68
2018-12-27T02:24:24.399Z,55.88
2018-12-27T02:24:49.981Z,55.68
2018-12-27T02:25:15.559Z,55.88
2018-12-27T02:25:41.137Z,55.68
2018-12-27T02:26:06.710Z,55.68
2018-12-27T02:26:32.312Z,55.78
2018-12-27T02:26:57.887Z,55.78
2018-12-27T02:27:23.468Z,55.88
2018-12-27T02:27:49.034Z,55.68
2018-12-27T02:28:14.604Z,55.78
2018-12-27T02:28:40.185Z,55.78
2018-12-27T02:29:05.744Z,55.88
2018-12-27T02:29:31.303Z,55.78
2018-12-27T02:29:56.898Z,55.78
2018-12-27T02:30:22.444Z,55.78
2018-12-27T02:30:47.987Z,55.68
2018-12-27T02:31:13.555Z,55.88
2018-12-27T02:31:39.143Z,55.88
2018-12-27T02:32:04.703Z,55.68
2018-12-27T02:32:30.244Z,55.78
2018-12-27T02:32:55.860Z,55.68
2018-12-27T02:33:21.425Z,55.88
2018-12-27T02:33:46.994Z,55.88
2018-12-27T02:34:12.576Z,55.88
2018-12-27T02:34:38.173Z,55.88
2018-12-27T02:35:03.748Z,55.68
2018-12-27T02:35:29.324Z,55.78
2018-12-27T02:35:54.892Z,55.78
2018-12-27T02:36:20.464Z,55.78
2018-12-27T02:36:46.023Z,55.78
2018-12-27T02:37:11.605Z,55.68
2018-12-27T02:37:37.193Z,55.78
2018-12-27T02:38:02.770Z,55.78
2018-12-27T02:38:28.349Z,55.98
2018-12-27T02:38:53.907Z,55.88
2018-12-27T02:39:19.475Z,55.98
2018-12-27T02:39:45.039Z,55.88
2018-12-27T02:40:10.601Z,55.78
2018-12-27T02:40:36.154Z,55.88
2018-12-27T02:41:01.737Z,55.68
2018-12-27T02:41:27.319Z,55.78
2018-12-27T02:41:52.909Z,55.68
2018-12-27T02:42:18.468Z,55.88
2018-12-27T02:42:44.033Z,55.88
2018-12-27T02:43:09.612Z,55.88
2018-12-27T02:43:35.165Z,55.88
2018-12-27T02:44:00.721Z,55.88
2018-12-27T02:44:26.287Z,55.78
2018-12-27T02:44:51.893Z,55.68
2018-12-27T02:45:17.481Z,55.78
2018-12-27T02:45:43.053Z,55.78
2018-12-27T02:46:08.633Z,55.78
2018-12-27T02:46:34.202Z,55.88
2018-12-27T02:46:59.786Z,55.78
2018-12-27T02:47:25.367Z,55.68
2018-12-27T02:47:50.941Z,55.78
2018-12-27T02:48:16.518Z,55.68
2018-12-27T02:48:42.078Z,55.68
2018-12-27T02:49:07.649Z,55.68
2018-12-27T02:49:33.213Z,55.68
2018-12-27T02:49:58.809Z,55.68
2018-12-27T02:50:24.410Z,55.68
2018-12-27T02:50:49.965Z,55.98
2018-12-27T02:51:15.549Z,55.68
2018-12-27T02:51:41.126Z,55.88
2018-12-27T02:52:06.677Z,55.68
2018-12-27T02:52:32.303Z,55.78
2018-12-27T02:52:57.859Z,55.68
2018-12-27T02:53:23.431Z,55.68
2018-12-27T02:53:48.999Z,55.78
2018-12-27T02:54:14.573Z,55.68
2018-12-27T02:54:40.143Z,55.78
2018-12-27T02:55:05.712Z,55.68
2018-12-27T02:55:31.302Z,55.78
2018-12-27T02:55:56.872Z,55.68
2018-12-27T02:56:22.468Z,55.78
2018-12-27T02:56:48.063Z,55.78
2018-12-27T02:57:13.632Z,55.68
2018-12-27T02:57:39.197Z,55.68
2018-12-27T02:58:04.774Z,55.78
2018-12-27T02:58:30.325Z,55.68
2018-12-27T02:58:55.893Z,55.68
2018-12-27T02:59:21.449Z,55.68
2018-12-27T02:59:47.055Z,55.68
2018-12-27T03:00:12.591Z,55.78
2018-12-27T03:00:38.170Z,55.88
2018-12-27T03:01:03.729Z,55.88
2018-12-27T03:01:29.291Z,55.88
2018-12-27T03:01:54.882Z,55.78
2018-12-27T03:02:20.465Z,55.68
2018-12-27T03:02:46.040Z,55.78
2018-12-27T03:03:11.604Z,55.78
2018-12-27T03:03:43.732Z,55.68
2018-12-27T03:04:02.774Z,55.78
2018-12-27T03:04:28.331Z,55.78
2018-12-27T03:04:53.901Z,55.78
2018-12-27T03:05:19.463Z,55.78
2018-12-27T03:05:45.041Z,55.78
2018-12-27T03:06:10.608Z,55.59
2018-12-27T03:06:36.162Z,55.68
2018-12-27T03:07:01.736Z,55.78
2018-12-27T03:07:27.317Z,55.68
2018-12-27T03:07:52.884Z,55.78
2018-12-27T03:08:18.465Z,55.68
2018-12-27T03:08:44.051Z,55.78
2018-12-27T03:09:09.628Z,55.78
2018-12-27T03:09:35.199Z,55.68
2018-12-27T03:10:00.772Z,55.78
2018-12-27T03:10:26.332Z,55.78
2018-12-27T03:10:51.892Z,55.78
2018-12-27T03:11:17.469Z,55.78
2018-12-27T03:11:43.034Z,55.78
2018-12-27T03:12:08.596Z,55.78
2018-12-27T03:12:34.165Z,55.78
2018-12-27T03:12:59.814Z,55.78
2018-12-27T03:13:25.289Z,55.78
2018-12-27T03:13:50.871Z,55.78
2018-12-27T03:14:16.444Z,55.78
2018-12-27T03:14:42.004Z,55.78
2018-12-27T03:15:07.568Z,55.88
2018-12-27T03:15:33.150Z,55.68
2018-12-27T03:15:58.720Z,55.68
2018-12-27T03:16:24.286Z,55.78
2018-12-27T03:16:49.852Z,55.68
2018-12-27T03:17:15.403Z,55.78
2018-12-27T03:17:40.979Z,55.78
2018-12-27T03:18:06.611Z,55.78
2018-12-27T03:18:32.178Z,55.88
2018-12-27T03:18:57.774Z,55.78
2018-12-27T03:19:23.326Z,55.78
2018-12-27T03:19:48.909Z,55.68
2018-12-27T03:20:14.478Z,55.78
2018-12-27T03:20:40.054Z,55.78
2018-12-27T03:21:05.605Z,55.78
2018-12-27T03:21:31.172Z,55.78
2018-12-27T03:21:56.741Z,55.88
2018-12-27T03:22:22.306Z,55.78
2018-12-27T03:22:47.869Z,55.59
2018-12-27T03:23:13.450Z,55.78
2018-12-27T03:23:39.014Z,55.78
2018-12-27T03:24:04.574Z,55.59
2018-12-27T03:24:30.115Z,55.78
2018-12-27T03:24:55.688Z,55.78
2018-12-27T03:25:21.326Z,55.59
2018-12-27T03:25:46.916Z,55.59
2018-12-27T03:26:12.473Z,55.88
2018-12-27T03:26:38.043Z,55.78
2018-12-27T03:27:03.616Z,55.78
2018-12-27T03:27:29.185Z,55.78
2018-12-27T03:27:54.760Z,55.68
2018-12-27T03:28:20.311Z,55.78
2018-12-27T03:28:45.888Z,55.68
2018-12-27T03:29:11.445Z,55.78
2018-12-27T03:29:37.014Z,55.68
2018-12-27T03:30:02.604Z,55.78
2018-12-27T03:30:28.187Z,55.78
2018-12-27T03:30:53.752Z,55.88
2018-12-27T03:31:19.315Z,55.88
2018-12-27T03:31:44.946Z,55.78
2018-12-27T03:32:10.516Z,55.59
2018-12-27T03:32:36.082Z,55.78
2018-12-27T03:33:01.656Z,55.78
2018-12-27T03:33:27.212Z,55.78
2018-12-27T03:33:53.092Z,55.78
2018-12-27T03:34:18.383Z,55.78
2018-12-27T03:34:43.956Z,55.59
2018-12-27T03:35:09.510Z,55.59
2018-12-27T03:35:35.093Z,55.59
2018-12-27T03:36:00.671Z,55.59
2018-12-27T03:36:26.222Z,55.98
2018-12-27T03:36:51.807Z,55.98
2018-12-27T03:37:17.378Z,55.78
2018-12-27T03:37:42.970Z,55.59
2018-12-27T03:38:08.544Z,55.78
2018-12-27T03:38:34.110Z,55.78
2018-12-27T03:38:59.652Z,55.78
2018-12-27T03:39:25.223Z,55.68
2018-12-27T03:39:50.778Z,55.78
2018-12-27T03:40:16.348Z,55.78
2018-12-27T03:40:41.908Z,55.59
2018-12-27T03:41:07.475Z,55.68
2018-12-27T03:41:33.052Z,55.78
2018-12-27T03:41:58.618Z,55.78
2018-12-27T03:42:24.180Z,55.78
2018-12-27T03:42:49.788Z,55.78
2018-12-27T03:43:15.382Z,55.98
2018-12-27T03:43:40.963Z,55.98
2018-12-27T03:44:06.518Z,55.98
2018-12-27T03:44:32.097Z,55.88
2018-12-27T03:44:57.703Z,55.98
2018-12-27T03:45:23.279Z,55.78
2018-12-27T03:45:48.879Z,55.98
2018-12-27T03:46:14.440Z,55.88
2018-12-27T03:46:40.014Z,55.78
2018-12-27T03:47:05.591Z,55.78
2018-12-27T03:47:31.209Z,55.98
2018-12-27T03:47:56.770Z,55.98
2018-12-27T03:48:22.348Z,55.98
2018-12-27T03:48:47.912Z,55.98
2018-12-27T03:49:13.473Z,55.98
2018-12-27T03:49:39.035Z,55.98
2018-12-27T03:50:04.591Z,55.98
2018-12-27T03:50:30.160Z,55.98
2018-12-27T03:50:55.713Z,55.88
2018-12-27T03:51:21.287Z,55.88
2018-12-27T03:51:46.890Z,55.88
2018-12-27T03:52:12.464Z,55.88
2018-12-27T03:52:38.049Z,55.88
2018-12-27T03:53:03.629Z,55.98
2018-12-27T03:53:29.196Z,55.98
2018-12-27T03:53:54.772Z,55.78
2018-12-27T03:54:20.343Z,55.88
2018-12-27T03:54:45.912Z,56.07
2018-12-27T03:55:11.474Z,55.98
2018-12-27T03:55:37.030Z,55.98
2018-12-27T03:56:02.608Z,55.88
2018-12-27T03:56:28.167Z,55.78
2018-12-27T03:56:53.731Z,55.88
2018-12-27T03:57:19.294Z,55.98
2018-12-27T03:57:44.914Z,55.98
2018-12-27T03:58:10.455Z,55.98
2018-12-27T03:58:36.051Z,56.07
2018-12-27T03:59:01.610Z,55.98
2018-12-27T03:59:27.180Z,55.98
2018-12-27T03:59:52.751Z,55.88
2018-12-27T04:00:18.324Z,55.78
2018-12-27T04:00:43.936Z,55.98
2018-12-27T04:01:09.500Z,55.98
2018-12-27T04:01:35.091Z,55.98
2018-12-27T04:02:00.679Z,55.98
2018-12-27T04:02:26.245Z,55.98
2018-12-27T04:02:51.822Z,55.88
2018-12-27T04:03:17.389Z,55.88
2018-12-27T04:03:42.977Z,55.98
2018-12-27T04:04:08.553Z,55.88
2018-12-27T04:04:34.114Z,55.88
2018-12-27T04:04:59.685Z,55.78
2018-12-27T04:05:25.272Z,55.78
2018-12-27T04:05:50.864Z,55.98
2018-12-27T04:06:16.424Z,55.98
2018-12-27T04:06:42.006Z,55.98
2018-12-27T04:07:07.571Z,55.98
2018-12-27T04:07:33.168Z,55.88
2018-12-27T04:07:58.743Z,55.88
2018-12-27T04:08:24.302Z,55.88
2018-12-27T04:08:49.884Z,55.78
2018-12-27T04:09:15.458Z,55.78
2018-12-27T04:09:41.022Z,55.4
2018-12-27T04:10:06.581Z,55.4
2018-12-27T04:10:32.142Z,55.98
2018-12-27T04:10:57.702Z,55.98
2018-12-27T04:11:23.275Z,55.4
2018-12-27T04:11:48.824Z,55.49
2018-12-27T04:12:14.420Z,55.59
2018-12-27T04:12:39.988Z,55.4
2018-12-27T04:13:05.557Z,55.4
2018-12-27T04:13:31.117Z,55.78
2018-12-27T04:13:56.723Z,55.59
2018-12-27T04:14:22.285Z,55.78
2018-12-27T04:14:47.853Z,55.78
2018-12-27T04:15:13.427Z,55.37
2018-12-27T04:15:38.988Z,55.78
2018-12-27T04:16:04.563Z,55.78
2018-12-27T04:16:30.144Z,55.59
2018-12-27T04:16:55.685Z,55.78
2018-12-27T04:17:21.255Z,55.78
2018-12-27T04:17:46.820Z,55.4
2018-12-27T04:18:12.381Z,55.78
2018-12-27T04:18:37.952Z,55.78
2018-12-27T04:19:03.509Z,55.85
2018-12-27T04:19:29.112Z,55.88
2018-12-27T04:19:54.659Z,55.59
2018-12-27T04:20:20.228Z,55.4
2018-12-27T04:20:45.806Z,55.4
2018-12-27T04:21:11.383Z,55.3
2018-12-27T04:21:36.953Z,55.4
2018-12-27T04:22:02.523Z,55.2
2018-12-27T04:22:28.091Z,55.27
2018-12-27T04:22:53.668Z,55.3
2018-12-27T04:23:19.222Z,55.2
2018-12-27T04:23:44.788Z,55.59
2018-12-27T04:24:10.375Z,55.27
2018-12-27T04:24:35.964Z,55.3
2018-12-27T04:25:01.536Z,55.4
2018-12-27T04:25:27.135Z,55.78
2018-12-27T04:25:52.683Z,55.78
2018-12-27T04:26:18.250Z,55.49
2018-12-27T04:26:43.838Z,55.4
2018-12-27T04:27:09.414Z,55.4
2018-12-27T04:27:34.972Z,55.3
2018-12-27T04:28:00.562Z,55.4
2018-12-27T04:28:26.125Z,55.76
2018-12-27T04:28:51.695Z,55.4
2018-12-27T04:29:17.276Z,55.3
2018-12-27T04:29:42.851Z,55.3
2018-12-27T04:30:08.418Z,55.2
2018-12-27T04:30:34.052Z,55.2
2018-12-27T04:30:59.619Z,55.3
2018-12-27T04:31:25.194Z,55.11
2018-12-27T04:31:50.766Z,55.2
2018-12-27T04:32:16.355Z,55.2
2018-12-27T04:32:41.931Z,55.27
2018-12-27T04:33:07.500Z,55.3
2018-12-27T04:33:33.066Z,55.3
2018-12-27T04:33:58.637Z,55.2
2018-12-27T04:34:24.208Z,55.2
2018-12-27T04:34:49.785Z,55.3
2018-12-27T04:35:15.368Z,55.3
2018-12-27T04:35:40.923Z,55.3
2018-12-27T04:36:06.491Z,55.78
2018-12-27T04:36:32.071Z,55.4
2018-12-27T04:36:57.627Z,55.2
2018-12-27T04:37:23.205Z,55.2
2018-12-27T04:37:48.782Z,55.4
2018-12-27T04:38:14.358Z,55.3
2018-12-27T04:38:39.911Z,55.2
2018-12-27T04:39:05.456Z,55.2
2018-12-27T04:39:31.031Z,55.59
2018-12-27T04:39:56.601Z,55.49
2018-12-27T04:40:22.191Z,55.3
2018-12-27T04:40:47.776Z,55.01
2018-12-27T04:41:13.341Z,55.2
2018-12-27T04:41:38.906Z,55.11
2018-12-27T04:42:04.479Z,55.4
2018-12-27T04:42:30.045Z,55.11
2018-12-27T04:42:55.609Z,55.3
2018-12-27T04:43:21.193Z,55.3
2018-12-27T04:43:46.782Z,55.27
2018-12-27T04:44:12.366Z,55.3
2018-12-27T04:44:37.920Z,55.11
2018-12-27T04:45:03.495Z,55.3
2018-12-27T04:45:29.080Z,55.01
2018-12-27T04:45:54.660Z,54.82
2018-12-27T04:46:20.241Z,54.82
2018-12-27T04:46:45.803Z,54.91
2018-12-27T04:47:11.373Z,54.91
2018-12-27T04:47:36.970Z,54.82
2018-12-27T04:48:02.527Z,54.91
2018-12-27T04:48:28.112Z,55.2
2018-12-27T04:48:53.692Z,55.11
2018-12-27T04:49:19.273Z,55.11
2018-12-27T04:49:44.857Z,55.01
2018-12-27T04:50:10.423Z,55.11
2018-12-27T04:50:36.005Z,55.11
2018-12-27T04:51:01.571Z,55.11
2018-12-27T04:51:27.142Z,55.3
2018-12-27T04:51:52.699Z,55.01
2018-12-27T04:52:18.255Z,54.91
2018-12-27T04:52:43.823Z,54.82
2018-12-27T04:53:09.439Z,55.2
2018-12-27T04:53:34.959Z,55.2
2018-12-27T04:54:00.518Z,55.2
2018-12-27T04:54:26.088Z,55.2
2018-12-27T04:54:51.728Z,55.3
2018-12-27T04:55:17.238Z,55.2
2018-12-27T04:55:42.795Z,55.11
2018-12-27T04:56:08.377Z,55.11
2018-12-27T04:56:33.938Z,55.2
2018-12-27T04:56:59.502Z,55.01
2018-12-27T04:57:25.091Z,55.4
2018-12-27T04:57:50.687Z,55.2
2018-12-27T04:58:16.249Z,55.11
2018-12-27T04:58:41.842Z,55.2
2018-12-27T04:59:07.406Z,55.11
2018-12-27T04:59:32.977Z,55.11
2018-12-27T04:59:58.567Z,55.11
2018-12-27T05:00:24.115Z,55.11
2018-12-27T05:00:49.687Z,55.3
2018-12-27T05:01:15.266Z,55.2
2018-12-27T05:01:40.827Z,55.2
2018-12-27T05:02:06.388Z,55.2
2018-12-27T05:02:31.948Z,55.2
2018-12-27T05:02:57.532Z,55.2
2018-12-27T05:03:23.108Z,55.2
2018-12-27T05:03:48.670Z,55.11
2018-12-27T05:04:17.997Z,55.11
2018-12-27T05:04:39.804Z,55.11
2018-12-27T05:05:05.395Z,55.2
2018-12-27T05:05:30.985Z,55.2
2018-12-27T05:05:56.558Z,55.2
2018-12-27T05:06:22.131Z,55.2
2018-12-27T05:06:47.686Z,55.11
2018-12-27T05:07:13.283Z,55.2
2018-12-27T05:07:38.856Z,55.11
2018-12-27T05:08:04.445Z,55.11
2018-12-27T05:08:30.011Z,55.11
2018-12-27T05:08:55.606Z,55.2
2018-12-27T05:09:21.155Z,55.11
2018-12-27T05:09:46.726Z,55.2
2018-12-27T05:10:12.293Z,55.2
2018-12-27T05:10:37.875Z,55.2
2018-12-27T05:11:03.442Z,55.2
2018-12-27T05:11:29.015Z,55.11
2018-12-27T05:11:54.579Z,55.2
2018-12-27T05:12:20.153Z,55.2
2018-12-27T05:12:45.737Z,55.11
2018-12-27T05:13:11.317Z,55.2
2018-12-27T05:13:36.931Z,55.2
2018-12-27T05:14:02.509Z,55.01
2018-12-27T05:14:28.091Z,55.11
2018-12-27T05:14:53.663Z,55.11
2018-12-27T05:15:19.257Z,54.82
2018-12-27T05:15:44.828Z,55.2
2018-12-27T05:16:10.418Z,55.2
2018-12-27T05:16:35.997Z,55.11
2018-12-27T05:17:01.550Z,55.2
2018-12-27T05:17:27.128Z,55.2
2018-12-27T05:17:52.709Z,55.3
2018-12-27T05:18:18.285Z,54.82
2018-12-27T05:18:43.863Z,55.11
2018-12-27T05:19:09.425Z,55.2
2018-12-27T05:19:35.000Z,55.11
2018-12-27T05:20:00.641Z,55.2
2018-12-27T05:20:26.144Z,55.2
2018-12-27T05:20:51.709Z,55.3
2018-12-27T05:21:17.272Z,55.01
2018-12-27T05:21:42.857Z,55.01
2018-12-27T05:22:08.438Z,55.01
2018-12-27T05:22:34.009Z,55.01
2018-12-27T05:22:59.587Z,55.01
2018-12-27T05:23:25.165Z,55.01
2018-12-27T05:23:50.783Z,55.11
2018-12-27T05:24:16.310Z,55.01
2018-12-27T05:24:41.884Z,55.01
2018-12-27T05:25:07.442Z,55.01
2018-12-27T05:25:33.036Z,54.82
2018-12-27T05:25:58.599Z,55.11
2018-12-27T05:26:24.181Z,54.91
2018-12-27T05:26:49.743Z,55.11
2018-12-27T05:27:15.341Z,55.01
2018-12-27T05:27:40.913Z,54.91
2018-12-27T05:28:06.483Z,55.01
2018-12-27T05:28:32.093Z,55.3
2018-12-27T05:28:57.687Z,55.3
2018-12-27T05:29:23.270Z,55.4
2018-12-27T05:29:48.838Z,55.2
2018-12-27T05:30:14.403Z,55.4
2018-12-27T05:30:39.982Z,55.2
2018-12-27T05:31:05.554Z,55.2